Terminal Aerodrome Forecast
Issued by NWS

Home | Current Version | Previous Version | Text Only | Print | Product List | Glossary On
Versions: 1 2 3 4 5 6 7 8 9 10 11 12 13 14
000
FTUS44 KLIX 251736
TAFGPT
TAF
KGPT 251736Z 2518/2618 35011KT P6SM VCTS SCT035CB
     FM252300 01005KT P6SM BKN070
     FM260700 03005KT P6SM SCT040
     FM260800 03005KT P6SM BKN035
     FM261400 05007KT P6SM SCT035=

USA.gov is the U.S. government's official web portal to all federal, state and local government web resources and services.